Larvik — C6VC2 — position and weather

sailwx.info

Track history (hours):
 
Tides and Currents Weather Stations Pressure Air Temp Water Temp Dewpoint Dewpoint Depression Visibility Wind Speed Wind Dir Waves Ship Positions

Larvik

Last reported at 2017-Apr-13 00:45 UTC. Time now 2017-May-23 12:39 UTC.
Position N 31°08' W 118°39'.
Warning: this ship's position is 40 days out of date.

Length 214 m; draft 7.4 m.

Type: Ship (hazmat cat D). MMSI: 308371000.

Date/timePositionNaut miles runAvg speedWind from/ knotsBaromVisibWave heightAir tempDewpointWater temp
2017-Apr-13 00:45N 31°08' W 118°39'512.7
2017-Apr-13 00:21N 31°11' W 118°44'512.9
2017-Apr-12 23:59N 31°15' W 118°47'13212.7
2017-Apr-12 13:34N 32°47' W 120°39'112.7
2017-Apr-12 13:30N 32°48' W 120°40'612.4
2017-Apr-12 13:00N 32°52' W 120°45'812.7
2017-Apr-12 12:22N 32°58' W 120°52'612.6
2017-Apr-12 11:55N 33°03' W 120°55'1412.7
2017-Apr-12 10:49N 33°16' W 121°00'413.7
2017-Apr-12 10:30N 33°19' W 121°04'713.9
2017-Apr-12 10:00N 33°25' W 121°09'713.9
2017-Apr-12 09:30N 33°30' W 121°15'714.0
2017-Apr-12 09:00N 33°35' W 121°21'713.6
2017-Apr-12 08:30N 33°40' W 121°26'713.4
2017-Apr-12 08:00N 33°45' W 121°32'713.5
2017-Apr-12 07:30N 33°50' W 121°37'1113.4
2017-Apr-12 06:39N 33°58' W 121°47'212.8
2017-Apr-12 06:30N 33°59' W 121°48'812.9
2017-Apr-12 05:55N 34°05' W 121°54'512.7
2017-Apr-12 05:30N 34°09' W 121°59'612.3
2017-Apr-12 05:00N 34°15' W 122°01'612.8
2017-Apr-12 04:30N 34°21' W 122°02'613.0
2017-Apr-12 04:00N 34°27' W 122°02'713.0
2017-Apr-12 03:30N 34°34' W 122°03'613.0
2017-Apr-12 03:00N 34°40' W 122°05'712.8
2017-Apr-12 02:26N 34°48' W 122°06'512.5
2017-Apr-12 02:00N 34°53' W 122°07'812.4
2017-Apr-12 01:19N 35°01' W 122°08'812.3
2017-Apr-12 00:42N 35°09' W 122°08'311.9
2017-Apr-12 00:28N 35°12' W 122°09'612.2
2017-Apr-12 00:00N 35°17' W 122°10'612.4
2017-Apr-11 23:30N 35°23' W 122°11'612.9
2017-Apr-11 23:00N 35°30' W 122°12'713.1
2017-Apr-11 22:30N 35°36' W 122°12'713.1
2017-Apr-11 22:00N 35°43' W 122°13'713.1
2017-Apr-11 21:30N 35°49' W 122°14'713.4
2017-Apr-11 21:00N 35°56' W 122°15'612.8
2017-Apr-11 20:30N 36°02' W 122°17'612.4
2017-Apr-11 20:00N 36°08' W 122°17'612.5
2017-Apr-11 19:30N 36°15' W 122°18'612.5
2017-Apr-11 19:00N 36°21' W 122°20'612.8
2017-Apr-11 18:30N 36°27' W 122°23'612.7
2017-Apr-11 18:00N 36°32' W 122°26'611.8
2017-Apr-11 17:30N 36°38' W 122°28'611.7
2017-Apr-11 17:00N 36°43' W 122°31'611.6
2017-Apr-11 16:30N 36°49' W 122°33'612.0
2017-Apr-11 16:00N 36°54' W 122°36'612.0
2017-Apr-11 15:30N 37°00' W 122°39'612.3
2017-Apr-11 15:00N 37°06' W 122°41'1212.1
2017-Apr-11 14:00N 37°18' W 122°44'612.5
2017-Apr-11 13:30N 37°24' W 122°43'612.3
2017-Apr-11 13:00N 37°30' W 122°44'612.1
2017-Apr-11 12:30N 37°36' W 122°44'612.0
2017-Apr-11 12:00N 37°42' W 122°43'510.0
2017-Apr-11 11:30N 37°46' W 122°39'713.4
2017-Apr-11 11:00N 37°48' W 122°31'611.3
2017-Apr-11 10:31N 37°49' W 122°24'4 8.0
2017-Apr-11 10:00N 37°46' W 122°21'0 0.1
2017-Apr-11 09:29N 37°46' W 122°21'0 0.2
2017-Apr-11 08:59N 37°46' W 122°21'0 0.4
2017-Apr-11 08:29N 37°45' W 122°21'0 0.1
2017-Apr-11 07:59N 37°45' W 122°21'0 0.0
2017-Apr-11 07:30N 37°45' W 122°21'0 0.0
2017-Apr-11 06:59N 37°45' W 122°21'0 0.0
2017-Apr-11 06:30N 37°45' W 122°21'0 0.0
2017-Apr-11 05:59N 37°45' W 122°21'0 0.0
2017-Apr-11 05:29N 37°45' W 122°21'0 0.1
2017-Apr-11 05:00N 37°45' W 122°21'0 0.1
2017-Apr-11 04:29N 37°45' W 122°21'0 0.0
2017-Apr-11 03:59N 37°45' W 122°21'0 0.0
2017-Apr-11 03:30N 37°45' W 122°21'0 0.0
2017-Apr-11 02:59N 37°45' W 122°21'0 0.1
2017-Apr-11 02:29N 37°45' W 122°21'0 0.0
2017-Apr-11 02:00N 37°45' W 122°21'0 0.3
2017-Apr-11 01:29N 37°46' W 122°21'0 0.2
2017-Apr-11 00:59N 37°46' W 122°21'0 0.0
2017-Apr-11 00:29N 37°46' W 122°21'1 2.4
2017-Apr-11 00:00N 37°47' W 122°21'510.2
2017-Apr-10 23:30N 37°51' W 122°25'714.1
2017-Apr-10 23:00N 37°58' W 122°26'713.3
2017-Apr-10 22:30N 38°03' W 122°21'4 5.8
2017-Apr-10 21:51N 38°03' W 122°16'0 0.0
2017-Apr-10 21:27N 38°03' W 122°16'0 0.0
2017-Apr-10 20:57N 38°03' W 122°16'0 0.0
2017-Apr-10 07:39N 38°03' W 122°16'0 0.0
2017-Apr-10 07:21N 38°03' W 122°16'0 0.0
2017-Apr-09 07:06N 38°03' W 122°16'0 0.0
2017-Apr-09 07:00N 38°03' W 122°16'0 0.1
2017-Apr-09 06:31N 38°03' W 122°16'1 1.8
2017-Apr-09 06:01N 38°04' W 122°17'510.4
2017-Apr-09 05:31N 38°02' W 122°23'611.0
2017-Apr-09 05:00N 37°57' W 122°27'510.1
2017-Apr-09 04:31N 37°52' W 122°25'4 8.6
2017-Apr-09 04:01N 37°49' W 122°29'612.4
2017-Apr-09 03:31N 37°46' W 122°36'510.2
2017-Apr-09 03:01N 37°44' W 122°42'4 8.8
2017-Apr-09 02:30N 37°42' W 122°46'4 7.2
2017-Apr-09 02:00N 37°39' W 122°50'2 3.9
2017-Apr-09 01:31N 37°38' W 122°52'2 3.8
2017-Apr-09 01:00N 37°37' W 122°54'3 5.0
2017-Apr-09 00:30N 37°36' W 122°57'4 8.1
2017-Apr-09 00:00N 37°34' W 123°01'3 6.9
2017-Apr-08 23:31N 37°31' W 123°04'5 9.9
2017-Apr-08 23:00N 37°28' W 123°09'161 8.8
2017-Apr-08 04:46N 34°50' W 122°31'2 9.2
2017-Apr-08 04:30N 34°48' W 122°29'5 9.1
2017-Apr-08 03:54N 34°44' W 122°26'5 9.3
2017-Apr-08 03:24N 34°40' W 122°23'50 9.4
2017-Apr-07 22:06N 33°59' W 121°48'1 9.3
2017-Apr-07 22:00N 33°58' W 121°47'6 9.4
2017-Apr-07 21:23N 33°54' W 121°42'4 9.2
2017-Apr-07 20:58N 33°52' W 121°39'5 9.4
2017-Apr-07 20:28N 33°48' W 121°35'4 9.4
2017-Apr-07 20:00N 33°45' W 121°31'5 9.9
2017-Apr-07 19:30N 33°41' W 121°27'5 9.9
2017-Apr-07 19:00N 33°37' W 121°23'510.6
2017-Apr-07 18:30N 33°34' W 121°19'510.5
2017-Apr-07 18:00N 33°30' W 121°15'510.5
2017-Apr-07 17:30N 33°25' W 121°11'610.5
2017-Apr-07 16:59N 33°21' W 121°07'510.6
2017-Apr-07 16:30N 33°18' W 121°03'1511.5
2017-Apr-07 15:11N 33°07' W 120°50'311.0
2017-Apr-07 14:54N 33°05' W 120°47'410.9
2017-Apr-07 14:30N 33°02' W 120°44'1111.0
2017-Apr-07 13:30N 32°53' W 120°35'711.1
2017-Apr-07 12:55N 32°48' W 120°30'511.0
2017-Apr-07 12:25N 32°44' W 120°26'410.8
2017-Apr-07 12:01N 32°41' W 120°22'1310.7
2017-Apr-07 10:50N 32°32' W 120°12'310.8
2017-Apr-07 10:30N 32°30' W 120°09'510.8
2017-Apr-07 10:00N 32°26' W 120°04'510.9
2017-Apr-07 09:31N 32°22' W 119°60'510.5
2017-Apr-07 09:01N 32°18' W 119°56'510.6
2017-Apr-07 08:31N 32°15' W 119°51'510.5
2017-Apr-07 08:00N 32°12' W 119°46'510.3
2017-Apr-07 07:30N 32°08' W 119°41'510.6
2017-Apr-07 07:00N 32°03' W 119°39'510.6
2017-Apr-07 06:30N 31°59' W 119°35'510.8
2017-Apr-07 06:01N 31°55' W 119°31'611.1
2017-Apr-07 05:31N 31°51' W 119°26'611.2
2017-Apr-07 05:00N 31°47' W 119°22'611.2
2017-Apr-07 04:31N 31°43' W 119°18'611.3
2017-Apr-07 04:00N 31°39' W 119°13'611.4
2017-Apr-07 03:30N 31°34' W 119°08'611.3
2017-Apr-07 03:00N 31°30' W 119°04'611.4
2017-Apr-07 02:30N 31°26' W 118°59'611.4
2017-Apr-07 02:00N 31°22' W 118°55'611.3
2017-Apr-07 01:30N 31°18' W 118°50'611.4
2017-Apr-07 01:00N 31°14' W 118°46'611.5
2017-Apr-07 00:31N 31°09' W 118°41'611.7
2017-Apr-07 00:00N 31°05' W 118°37'611.7
2017-Apr-06 23:30N 30°60' W 118°33'911.6
2017-Apr-06 22:41N 30°52' W 118°27'211.6
2017-Apr-06 22:31N 30°51' W 118°25'611.7
2017-Apr-06 22:01N 30°46' W 118°21'611.6
2017-Apr-06 21:29N 30°41' W 118°17'510.9
2017-Apr-06 21:00N 30°37' W 118°13'511.1
2017-Apr-06 20:31N 30°33' W 118°09'911.1
2017-Apr-06 19:40N 30°25' W 118°03'211.5
2017-Apr-06 19:28N 30°23' W 118°01'611.5
2017-Apr-06 18:59N 30°19' W 117°58'1211.9
2017-Apr-06 18:00N 30°09' W 117°49'811.8
2017-Apr-06 17:19N 30°03' W 117°44'411.8
2017-Apr-06 17:00N 29°60' W 117°42'611.7
2017-Apr-06 16:30N 29°55' W 117°38'611.8
2017-Apr-06 16:00N 29°50' W 117°34'812.2
2017-Apr-06 15:22N 29°44' W 117°29'412.0
2017-Apr-06 15:01N 29°40' W 117°26'1211.7
2017-Apr-06 14:01N 29°31' W 117°18'1811.7
2017-Apr-06 12:29N 29°16' W 117°06'611.6
2017-Apr-06 12:00N 29°12' W 117°02'611.6
2017-Apr-06 11:28N 29°07' W 116°58'1711.3
2017-Apr-06 09:59N 28°53' W 116°47'511.2
2017-Apr-06 09:30N 28°49' W 116°43'611.3
2017-Apr-06 09:00N 28°44' W 116°39'711.4
2017-Apr-06 08:24N 28°39' W 116°35'411.4
2017-Apr-06 08:00N 28°35' W 116°32'611.4
2017-Apr-06 07:31N 28°31' W 116°28'3111.1
2017-Apr-06 04:44N 28°06' W 116°08'1511.2
2017-Apr-06 03:22N 27°54' W 115°57'1011.3
2017-Apr-06 02:30N 27°46' W 115°50'611.2
2017-Apr-06 01:59N 27°41' W 115°47'711.1
2017-Apr-06 01:23N 27°36' W 115°42'511.0
2017-Apr-06 00:54N 27°32' W 115°38'811.0
2017-Apr-06 00:08N 27°25' W 115°33'211.0
2017-Apr-06 00:00N 27°24' W 115°32'611.2
2017-Apr-05 23:30N 27°19' W 115°28'511.3
2017-Apr-05 23:01N 27°15' W 115°24'611.4
2017-Apr-05 22:30N 27°10' W 115°20'611.5
2017-Apr-05 22:01N 27°06' W 115°16'5 9.5
2017-Apr-05 21:30N 27°02' W 115°13'12 9.2
2017-Apr-05 20:14N 26°52' W 115°05'311.3
2017-Apr-05 19:59N 26°50' W 115°03'  
Track history (hours):
 
Tides and Currents Weather Stations Pressure Air Temp Water Temp Dewpoint Dewpoint Depression Visibility Wind Speed Wind Dir Waves Ship Positions

Larvik

Last reported at 2017-Apr-13 00:45 UTC. Time now 2017-May-23 12:39 UTC.
Position N 31°08' W 118°39'.
Warning: this ship's position is 40 days out of date.

Length 214 m; draft 7.4 m.

Type: Ship (hazmat cat D). MMSI: 308371000.

Date/timePositionNaut miles runAvg speedWind from/ knotsBaromVisibWave heightAir tempDewpointWater temp
2017-Apr-13 00:45N 31°08' W 118°39'512.7
2017-Apr-13 00:21N 31°11' W 118°44'512.9
2017-Apr-12 23:59N 31°15' W 118°47'13212.7
2017-Apr-12 13:34N 32°47' W 120°39'112.7
2017-Apr-12 13:30N 32°48' W 120°40'612.4
2017-Apr-12 13:00N 32°52' W 120°45'812.7
2017-Apr-12 12:22N 32°58' W 120°52'612.6
2017-Apr-12 11:55N 33°03' W 120°55'1412.7
2017-Apr-12 10:49N 33°16' W 121°00'413.7
2017-Apr-12 10:30N 33°19' W 121°04'713.9
2017-Apr-12 10:00N 33°25' W 121°09'713.9
2017-Apr-12 09:30N 33°30' W 121°15'714.0
2017-Apr-12 09:00N 33°35' W 121°21'713.6
2017-Apr-12 08:30N 33°40' W 121°26'713.4
2017-Apr-12 08:00N 33°45' W 121°32'713.5
2017-Apr-12 07:30N 33°50' W 121°37'1113.4
2017-Apr-12 06:39N 33°58' W 121°47'212.8
2017-Apr-12 06:30N 33°59' W 121°48'812.9
2017-Apr-12 05:55N 34°05' W 121°54'512.7
2017-Apr-12 05:30N 34°09' W 121°59'612.3
2017-Apr-12 05:00N 34°15' W 122°01'612.8
2017-Apr-12 04:30N 34°21' W 122°02'613.0
2017-Apr-12 04:00N 34°27' W 122°02'713.0
2017-Apr-12 03:30N 34°34' W 122°03'613.0
2017-Apr-12 03:00N 34°40' W 122°05'712.8
2017-Apr-12 02:26N 34°48' W 122°06'512.5
2017-Apr-12 02:00N 34°53' W 122°07'812.4
2017-Apr-12 01:19N 35°01' W 122°08'812.3
2017-Apr-12 00:42N 35°09' W 122°08'311.9
2017-Apr-12 00:28N 35°12' W 122°09'612.2
2017-Apr-12 00:00N 35°17' W 122°10'612.4
2017-Apr-11 23:30N 35°23' W 122°11'612.9
2017-Apr-11 23:00N 35°30' W 122°12'713.1
2017-Apr-11 22:30N 35°36' W 122°12'713.1
2017-Apr-11 22:00N 35°43' W 122°13'713.1
2017-Apr-11 21:30N 35°49' W 122°14'713.4
2017-Apr-11 21:00N 35°56' W 122°15'612.8
2017-Apr-11 20:30N 36°02' W 122°17'612.4
2017-Apr-11 20:00N 36°08' W 122°17'612.5
2017-Apr-11 19:30N 36°15' W 122°18'612.5
2017-Apr-11 19:00N 36°21' W 122°20'612.8
2017-Apr-11 18:30N 36°27' W 122°23'612.7
2017-Apr-11 18:00N 36°32' W 122°26'611.8
2017-Apr-11 17:30N 36°38' W 122°28'611.7
2017-Apr-11 17:00N 36°43' W 122°31'611.6
2017-Apr-11 16:30N 36°49' W 122°33'612.0
2017-Apr-11 16:00N 36°54' W 122°36'612.0
2017-Apr-11 15:30N 37°00' W 122°39'612.3
2017-Apr-11 15:00N 37°06' W 122°41'1212.1
2017-Apr-11 14:00N 37°18' W 122°44'612.5
2017-Apr-11 13:30N 37°24' W 122°43'612.3
2017-Apr-11 13:00N 37°30' W 122°44'612.1
2017-Apr-11 12:30N 37°36' W 122°44'612.0
2017-Apr-11 12:00N 37°42' W 122°43'510.0
2017-Apr-11 11:30N 37°46' W 122°39'713.4
2017-Apr-11 11:00N 37°48' W 122°31'611.3
2017-Apr-11 10:31N 37°49' W 122°24'4 8.0
2017-Apr-11 10:00N 37°46' W 122°21'0 0.1
2017-Apr-11 09:29N 37°46' W 122°21'0 0.2
2017-Apr-11 08:59N 37°46' W 122°21'0 0.4
2017-Apr-11 08:29N 37°45' W 122°21'0 0.1
2017-Apr-11 07:59N 37°45' W 122°21'0 0.0
2017-Apr-11 07:30N 37°45' W 122°21'0 0.0
2017-Apr-11 06:59N 37°45' W 122°21'0 0.0
2017-Apr-11 06:30N 37°45' W 122°21'0 0.0
2017-Apr-11 05:59N 37°45' W 122°21'0 0.0
2017-Apr-11 05:29N 37°45' W 122°21'0 0.1
2017-Apr-11 05:00N 37°45' W 122°21'0 0.1
2017-Apr-11 04:29N 37°45' W 122°21'0 0.0
2017-Apr-11 03:59N 37°45' W 122°21'0 0.0
2017-Apr-11 03:30N 37°45' W 122°21'0 0.0
2017-Apr-11 02:59N 37°45' W 122°21'0 0.1
2017-Apr-11 02:29N 37°45' W 122°21'0 0.0
2017-Apr-11 02:00N 37°45' W 122°21'0 0.3
2017-Apr-11 01:29N 37°46' W 122°21'0 0.2
2017-Apr-11 00:59N 37°46' W 122°21'0 0.0
2017-Apr-11 00:29N 37°46' W 122°21'1 2.4
2017-Apr-11 00:00N 37°47' W 122°21'510.2
2017-Apr-10 23:30N 37°51' W 122°25'714.1
2017-Apr-10 23:00N 37°58' W 122°26'713.3
2017-Apr-10 22:30N 38°03' W 122°21'4 5.8
2017-Apr-10 21:51N 38°03' W 122°16'0 0.0
2017-Apr-10 21:27N 38°03' W 122°16'0 0.0
2017-Apr-10 20:57N 38°03' W 122°16'0 0.0
2017-Apr-10 07:39N 38°03' W 122°16'0 0.0
2017-Apr-10 07:21N 38°03' W 122°16'0 0.0
2017-Apr-09 07:06N 38°03' W 122°16'0 0.0
2017-Apr-09 07:00N 38°03' W 122°16'0 0.1
2017-Apr-09 06:31N 38°03' W 122°16'1 1.8
2017-Apr-09 06:01N 38°04' W 122°17'510.4
2017-Apr-09 05:31N 38°02' W 122°23'611.0
2017-Apr-09 05:00N 37°57' W 122°27'510.1
2017-Apr-09 04:31N 37°52' W 122°25'4 8.6
2017-Apr-09 04:01N 37°49' W 122°29'612.4
2017-Apr-09 03:31N 37°46' W 122°36'510.2
2017-Apr-09 03:01N 37°44' W 122°42'4 8.8
2017-Apr-09 02:30N 37°42' W 122°46'4 7.2
2017-Apr-09 02:00N 37°39' W 122°50'2 3.9
2017-Apr-09 01:31N 37°38' W 122°52'2 3.8
2017-Apr-09 01:00N 37°37' W 122°54'3 5.0
2017-Apr-09 00:30N 37°36' W 122°57'4 8.1
2017-Apr-09 00:00N 37°34' W 123°01'3 6.9
2017-Apr-08 23:31N 37°31' W 123°04'5 9.9
2017-Apr-08 23:00N 37°28' W 123°09'161 8.8
2017-Apr-08 04:46N 34°50' W 122°31'2 9.2
2017-Apr-08 04:30N 34°48' W 122°29'5 9.1
2017-Apr-08 03:54N 34°44' W 122°26'5 9.3
2017-Apr-08 03:24N 34°40' W 122°23'50 9.4
2017-Apr-07 22:06N 33°59' W 121°48'1 9.3
2017-Apr-07 22:00N 33°58' W 121°47'6 9.4
2017-Apr-07 21:23N 33°54' W 121°42'4 9.2
2017-Apr-07 20:58N 33°52' W 121°39'5 9.4
2017-Apr-07 20:28N 33°48' W 121°35'4 9.4
2017-Apr-07 20:00N 33°45' W 121°31'5 9.9
2017-Apr-07 19:30N 33°41' W 121°27'5 9.9
2017-Apr-07 19:00N 33°37' W 121°23'510.6
2017-Apr-07 18:30N 33°34' W 121°19'510.5
2017-Apr-07 18:00N 33°30' W 121°15'510.5
2017-Apr-07 17:30N 33°25' W 121°11'610.5
2017-Apr-07 16:59N 33°21' W 121°07'510.6
2017-Apr-07 16:30N 33°18' W 121°03'1511.5
2017-Apr-07 15:11N 33°07' W 120°50'311.0
2017-Apr-07 14:54N 33°05' W 120°47'410.9
2017-Apr-07 14:30N 33°02' W 120°44'1111.0
2017-Apr-07 13:30N 32°53' W 120°35'711.1
2017-Apr-07 12:55N 32°48' W 120°30'511.0
2017-Apr-07 12:25N 32°44' W 120°26'410.8
2017-Apr-07 12:01N 32°41' W 120°22'1310.7
2017-Apr-07 10:50N 32°32' W 120°12'310.8
2017-Apr-07 10:30N 32°30' W 120°09'510.8
2017-Apr-07 10:00N 32°26' W 120°04'510.9
2017-Apr-07 09:31N 32°22' W 119°60'510.5
2017-Apr-07 09:01N 32°18' W 119°56'510.6
2017-Apr-07 08:31N 32°15' W 119°51'510.5
2017-Apr-07 08:00N 32°12' W 119°46'510.3
2017-Apr-07 07:30N 32°08' W 119°41'510.6
2017-Apr-07 07:00N 32°03' W 119°39'510.6
2017-Apr-07 06:30N 31°59' W 119°35'510.8
2017-Apr-07 06:01N 31°55' W 119°31'611.1
2017-Apr-07 05:31N 31°51' W 119°26'611.2
2017-Apr-07 05:00N 31°47' W 119°22'611.2
2017-Apr-07 04:31N 31°43' W 119°18'611.3
2017-Apr-07 04:00N 31°39' W 119°13'611.4
2017-Apr-07 03:30N 31°34' W 119°08'611.3
2017-Apr-07 03:00N 31°30' W 119°04'611.4
2017-Apr-07 02:30N 31°26' W 118°59'611.4
2017-Apr-07 02:00N 31°22' W 118°55'611.3
2017-Apr-07 01:30N 31°18' W 118°50'611.4
2017-Apr-07 01:00N 31°14' W 118°46'611.5
2017-Apr-07 00:31N 31°09' W 118°41'611.7
2017-Apr-07 00:00N 31°05' W 118°37'611.7
2017-Apr-06 23:30N 30°60' W 118°33'911.6
2017-Apr-06 22:41N 30°52' W 118°27'211.6
2017-Apr-06 22:31N 30°51' W 118°25'611.7
2017-Apr-06 22:01N 30°46' W 118°21'611.6
2017-Apr-06 21:29N 30°41' W 118°17'510.9
2017-Apr-06 21:00N 30°37' W 118°13'511.1
2017-Apr-06 20:31N 30°33' W 118°09'911.1
2017-Apr-06 19:40N 30°25' W 118°03'211.5
2017-Apr-06 19:28N 30°23' W 118°01'611.5
2017-Apr-06 18:59N 30°19' W 117°58'1211.9
2017-Apr-06 18:00N 30°09' W 117°49'811.8
2017-Apr-06 17:19N 30°03' W 117°44'411.8
2017-Apr-06 17:00N 29°60' W 117°42'611.7
2017-Apr-06 16:30N 29°55' W 117°38'611.8
2017-Apr-06 16:00N 29°50' W 117°34'812.2
2017-Apr-06 15:22N 29°44' W 117°29'412.0
2017-Apr-06 15:01N 29°40' W 117°26'1211.7
2017-Apr-06 14:01N 29°31' W 117°18'1811.7
2017-Apr-06 12:29N 29°16' W 117°06'611.6
2017-Apr-06 12:00N 29°12' W 117°02'611.6
2017-Apr-06 11:28N 29°07' W 116°58'1711.3
2017-Apr-06 09:59N 28°53' W 116°47'511.2
2017-Apr-06 09:30N 28°49' W 116°43'611.3
2017-Apr-06 09:00N 28°44' W 116°39'711.4
2017-Apr-06 08:24N 28°39' W 116°35'411.4
2017-Apr-06 08:00N 28°35' W 116°32'611.4
2017-Apr-06 07:31N 28°31' W 116°28'3111.1
2017-Apr-06 04:44N 28°06' W 116°08'1511.2
2017-Apr-06 03:22N 27°54' W 115°57'1011.3
2017-Apr-06 02:30N 27°46' W 115°50'611.2
2017-Apr-06 01:59N 27°41' W 115°47'711.1
2017-Apr-06 01:23N 27°36' W 115°42'511.0
2017-Apr-06 00:54N 27°32' W 115°38'811.0
2017-Apr-06 00:08N 27°25' W 115°33'211.0
2017-Apr-06 00:00N 27°24' W 115°32'611.2
2017-Apr-05 23:30N 27°19' W 115°28'511.3
2017-Apr-05 23:01N 27°15' W 115°24'611.4
2017-Apr-05 22:30N 27°10' W 115°20'611.5
2017-Apr-05 22:01N 27°06' W 115°16'5 9.5
2017-Apr-05 21:30N 27°02' W 115°13'12 9.2
2017-Apr-05 20:14N 26°52' W 115°05'311.3
2017-Apr-05 19:59N 26°50' W 115°03'  

Dump ship's entire track history